Time;durP1;ratioP1;P1;durP2;ratioP2;P2;SDS_P1;SDS_P2;PMS_P1;PMS_P2;Temp;Humidity;BMP_temperature;BMP_pressure;BME280_temperature;BME280_humidity;BME280_pressure;Samples;Min_cycle;Max_cycle;Signal;HPM_P1;HPM_P2
2021/05/10 00:01:24;;;;;;;0.97;0.67;;;;;;;-143.37;100.00;65745.06;5112595;28;20203;-69
2021/05/10 00:03:50;;;;;;;1.13;1.00;;;;;;;-143.37;100.00;65745.06;5113578;28;20208;-69
2021/05/10 00:06:16;;;;;;;1.43;1.17;;;;;;;-143.37;100.00;65745.06;5111652;28;20234;-69
2021/05/10 00:08:43;;;;;;;1.23;0.97;;;;;;;-143.37;100.00;65745.06;5113839;28;20245;-69
2021/05/10 00:11:09;;;;;;;0.80;0.73;;;;;;;-143.37;100.00;65745.06;5113681;28;20212;-69
2021/05/10 00:13:38;;;;;;;0.93;0.63;;;;;;;-143.37;100.00;65745.06;5111493;28;20291;-69
2021/05/10 00:16:04;;;;;;;1.33;1.00;;;;;;;-143.37;100.00;65745.06;5113317;28;20291;-69
2021/05/10 00:18:30;;;;;;;1.03;0.80;;;;;;;-143.37;100.00;65745.06;5112544;28;20204;-68
2021/05/10 00:20:56;;;;;;;1.20;0.93;;;;;;;-143.37;100.00;65745.06;5113708;28;20253;-68
2021/05/10 00:23:22;;;;;;;0.50;0.47;;;;;;;-143.37;100.00;65745.06;5113728;28;20207;-68
2021/05/10 00:25:48;;;;;;;0.80;0.70;;;;;;;-143.37;100.00;65745.06;5095111;28;20223;-68
2021/05/10 00:28:14;;;;;;;0.87;0.70;;;;;;;-143.37;100.00;65745.06;5112121;28;20224;-69
2021/05/10 00:30:40;;;;;;;1.77;1.10;;;;;;;-143.37;100.00;65745.06;5112275;28;20204;-69
2021/05/10 00:33:07;;;;;;;1.70;0.73;;;;;;;-143.37;100.00;65745.06;5112301;28;20302;-69
2021/05/10 00:35:33;;;;;;;0.90;0.67;;;;;;;-143.37;100.00;65745.06;5113285;28;20206;-69
2021/05/10 00:37:59;;;;;;;0.70;0.57;;;;;;;-143.37;100.00;65745.06;5111873;28;20255;-69
2021/05/10 00:40:28;;;;;;;1.23;0.67;;;;;;;-143.37;100.00;65745.06;5113063;28;20905;-68
2021/05/10 00:42:55;;;;;;;0.83;0.63;;;;;;;-143.37;100.00;65745.06;5113030;28;20196;-69
2021/05/10 00:45:22;;;;;;;0.67;0.53;;;;;;;-143.37;100.00;65745.06;5111642;28;20224;-69
2021/05/10 00:47:48;;;;;;;1.13;0.87;;;;;;;-143.37;100.00;65745.06;5113038;28;20224;-69
2021/05/10 00:50:14;;;;;;;0.77;0.67;;;;;;;-143.37;100.00;65745.06;5125042;27;20286;-69
2021/05/10 00:52:40;;;;;;;1.03;0.80;;;;;;;-143.37;100.00;65745.06;5133578;27;20199;-69
2021/05/10 00:55:09;;;;;;;1.00;0.87;;;;;;;-143.37;100.00;65745.06;5133244;27;20289;-69
2021/05/10 00:57:46;;;;;;;2.10;0.90;;;;;;;-143.37;100.00;65745.06;5128779;27;20251;-69
2021/05/10 01:34:11;;;;;;;2.07;0.70;;;;;;;16.37;100.00;97012.16;5109668;27;20494;-69
2021/05/10 01:36:37;;;;;;;1.00;0.73;;;;;;;16.18;100.00;97016.19;5109560;28;20230;-69
2021/05/10 01:39:04;;;;;;;0.67;0.67;;;;;;;16.13;100.00;97008.22;5109621;28;20341;-69
2021/05/10 01:41:30;;;;;;;1.23;0.83;;;;;;;15.97;100.00;97016.22;5109611;28;20231;-69
2021/05/10 01:43:56;;;;;;;1.03;0.70;;;;;;;16.11;100.00;97003.06;5108294;28;20680;-69
2021/05/10 01:46:22;;;;;;;1.43;0.90;;;;;;;15.91;100.00;97010.25;5108160;28;20224;-69
2021/05/10 01:48:49;;;;;;;0.83;0.70;;;;;;;16.12;100.00;97015.81;5091515;28;20204;-69
2021/05/10 01:51:15;;;;;;;1.47;1.13;;;;;;;16.06;100.00;97000.69;5129924;27;20234;-69
2021/05/10 01:53:44;;;;;;;1.30;1.10;;;;;;;15.86;100.00;97007.88;5128768;28;20314;-69
2021/05/10 01:56:10;;;;;;;2.73;1.23;;;;;;;15.84;100.00;97015.81;5129690;27;20298;-69
2021/05/10 01:58:36;;;;;;;1.53;1.00;;;;;;;15.97;100.00;97003.09;5115471;28;20257;-69
2021/05/10 02:01:03;;;;;;;3.60;1.60;;;;;;;16.04;100.00;97013.41;5109501;28;20208;-69
2021/05/10 02:03:28;;;;;;;0.97;0.87;;;;;;;15.96;100.00;97012.66;5108106;28;20285;-69
2021/05/10 02:05:55;;;;;;;0.70;0.70;;;;;;;15.90;100.00;97010.66;5107853;28;20200;-69
2021/05/10 02:08:21;;;;;;;1.33;0.93;;;;;;;15.82;100.00;97020.22;5107707;28;20350;-69
2021/05/10 02:10:51;;;;;;;0.70;0.70;;;;;;;15.80;100.00;97026.16;5108150;28;20236;-69
2021/05/10 02:13:22;;;;;;;2.17;1.03;;;;;;;15.89;100.00;97018.19;5107937;28;20223;-69
2021/05/10 02:15:51;;;;;;;1.77;0.93;;;;;;;16.02;100.00;97019.38;5109002;28;20231;-69
2021/05/10 02:18:20;;;;;;;1.07;0.97;;;;;;;16.03;100.00;97009.84;5108877;28;20224;-69
2021/05/10 02:20:47;;;;;;;0.60;0.60;;;;;;;15.83;100.00;97013.44;5107773;28;20208;-69
2021/05/10 02:23:15;;;;;;;2.23;1.20;;;;;;;15.73;100.00;97017.81;5108840;28;20574;-69
2021/05/10 02:25:43;;;;;;;3.03;0.93;;;;;;;15.68;100.00;97011.88;5108797;28;20257;-69
2021/05/10 02:28:11;;;;;;;1.67;1.30;;;;;;;15.63;100.00;97015.84;5108759;28;20704;-69
2021/05/10 02:30:39;;;;;;;1.20;0.90;;;;;;;15.72;100.00;97005.13;5108903;28;20231;-69
2021/05/10 02:33:10;;;;;;;1.30;0.90;;;;;;;15.88;100.00;97010.25;5108469;28;20315;-69
2021/05/10 02:35:36;;;;;;;1.00;0.80;;;;;;;15.78;100.00;97017.41;5107092;28;20204;-69
2021/05/10 02:38:03;;;;;;;0.60;0.60;;;;;;;15.85;100.00;97020.22;5107620;28;20318;-69
2021/05/10 02:40:29;;;;;;;1.80;1.00;;;;;;;15.98;100.00;97018.59;5108486;28;20578;-69
2021/05/10 02:43:00;;;;;;;1.50;0.90;;;;;;;15.85;100.00;97017.44;5103776;28;20193;-69
2021/05/10 02:45:26;;;;;;;1.80;1.07;;;;;;;-143.37;100.00;65745.06;5073822;28;20749;-69
2021/05/10 02:47:52;;;;;;;1.40;1.07;;;;;;;-143.37;100.00;65745.06;5074492;28;20672;-70
2021/05/10 02:50:22;;;;;;;0.83;0.73;;;;;;;-143.37;100.00;74159.53;5099755;28;20609;-69
2021/05/10 02:52:49;;;;;;;1.17;0.90;;;;;;;15.53;100.00;97038.88;5114992;28;20711;-69
2021/05/10 02:55:16;;;;;;;1.00;0.90;;;;;;;-143.37;100.00;65745.06;5114831;28;20698;-69
2021/05/10 02:57:43;;;;;;;1.13;0.87;;;;;;;15.64;100.00;97031.34;5109399;28;20696;-69
2021/05/10 03:00:11;;;;;;;1.17;1.07;;;;;;;-143.37;100.00;65745.06;5094595;28;20304;-69
2021/05/10 03:02:37;;;;;;;0.60;0.60;;;;;;;-143.37;100.00;65745.06;5094372;28;20739;-69
2021/05/10 03:05:05;;;;;;;1.00;0.90;;;;;;;-143.37;100.00;65745.06;5094477;28;20205;-69
2021/05/10 03:07:34;;;;;;;0.60;0.60;;;;;;;-143.37;100.00;65745.06;5094548;28;20333;-69
2021/05/10 03:10:03;;;;;;;0.60;0.60;;;;;;;-143.37;100.00;65745.06;5093169;28;20566;-69
2021/05/10 03:12:29;;;;;;;1.23;1.10;;;;;;;-143.37;100.00;65745.06;5094299;28;20221;-69
2021/05/10 03:14:56;;;;;;;1.23;0.73;;;;;;;-143.37;100.00;65745.06;5092888;28;20266;-69
2021/05/10 03:17:22;;;;;;;1.23;0.90;;;;;;;-143.37;100.00;65745.06;5093989;28;20232;-69
2021/05/10 03:19:48;;;;;;;1.10;0.90;;;;;;;-143.37;100.00;65745.06;5093118;28;20295;-69
2021/05/10 03:22:14;;;;;;;1.43;1.33;;;;;;;-143.37;100.00;65745.06;5094219;28;20295;-69
2021/05/10 03:24:41;;;;;;;1.00;0.90;;;;;;;-143.37;100.00;65745.06;5093738;28;20680;-69
2021/05/10 03:27:07;;;;;;;1.30;0.87;;;;;;;-143.37;100.00;65745.06;5075996;28;20642;-69
2021/05/10 03:29:33;;;;;;;1.97;0.93;;;;;;;-143.37;100.00;65745.06;5092632;28;20291;-69
2021/05/10 03:31:59;;;;;;;1.17;0.80;;;;;;;-143.37;100.00;65745.06;5093614;28;20243;-69
2021/05/10 03:34:25;;;;;;;1.70;0.87;;;;;;;-143.37;100.00;65745.06;5092424;28;20204;-69
2021/05/10 03:36:51;;;;;;;1.57;0.90;;;;;;;-143.37;100.00;65745.06;5093861;28;20228;-69
2021/05/10 03:39:17;;;;;;;1.67;1.10;;;;;;;-143.37;100.00;65745.06;5092577;28;20236;-69
2021/05/10 03:41:43;;;;;;;1.00;0.90;;;;;;;-143.37;100.00;65745.06;5093785;28;20618;-69
2021/05/10 03:44:09;;;;;;;1.10;0.97;;;;;;;-143.37;100.00;65745.06;5079225;28;20201;-69
2021/05/10 03:46:35;;;;;;;5.10;1.00;;;;;;;-143.37;100.00;65745.06;5073175;28;20232;-69
2021/05/10 03:49:01;;;;;;;2.17;0.73;;;;;;;-143.37;100.00;65745.06;5077049;28;20205;-69
2021/05/10 03:51:27;;;;;;;1.57;1.07;;;;;;;-143.37;100.00;65745.06;5112909;28;20233;-69
2021/05/10 03:53:53;;;;;;;0.93;0.87;;;;;;;-143.37;100.00;65745.06;5095932;28;20315;-69
2021/05/10 03:56:19;;;;;;;2.00;0.83;;;;;;;-143.37;100.00;65745.06;5112605;28;20605;-69
2021/05/10 03:58:45;;;;;;;2.50;1.30;;;;;;;-143.37;100.00;65745.06;5098332;28;20646;-69
2021/05/10 04:01:12;;;;;;;1.50;1.10;;;;;;;-143.37;100.00;65745.06;5092679;28;20258;-69
2021/05/10 04:03:46;;;;;;;2.27;1.10;;;;;;;-143.37;100.00;65745.06;5093575;28;20207;-70
2021/05/10 04:06:28;;;;;;;2.90;0.70;;;;;;;-143.37;100.00;65745.06;5093206;28;20677;-69
2021/05/10 04:09:12;;;;;;;1.00;0.90;;;;;;;-143.37;100.00;65745.06;5092221;28;20212;-69
2021/05/10 04:14:24;;;;;;;1.33;0.97;;;;;;;-143.37;100.00;65745.06;5093002;28;20315;-69
2021/05/10 04:16:50;;;;;;;0.80;0.73;;;;;;;-143.37;100.00;65745.06;5092988;28;20273;-69
2021/05/10 04:19:17;;;;;;;1.47;1.10;;;;;;;-143.37;100.00;65745.06;5091843;28;20208;-69
2021/05/10 04:21:43;;;;;;;1.80;0.90;;;;;;;-143.37;100.00;65745.06;5092871;28;20231;-69
2021/05/10 04:24:10;;;;;;;1.17;1.07;;;;;;;-143.37;100.00;65745.06;5092817;28;20730;-69
2021/05/10 04:26:36;;;;;;;1.50;1.07;;;;;;;-143.37;100.00;65745.06;5092718;28;20260;-69
2021/05/10 04:29:02;;;;;;;1.20;1.00;;;;;;;-143.37;100.00;65745.06;5092852;28;20204;-69
2021/05/10 04:31:28;;;;;;;1.47;1.07;;;;;;;-143.37;100.00;65745.06;5091491;28;20205;-69
2021/05/10 04:33:55;;;;;;;1.27;1.10;;;;;;;-143.37;100.00;65745.06;5092532;28;20606;-69
2021/05/10 04:36:21;;;;;;;0.97;0.97;;;;;;;-143.37;100.00;65745.06;5091068;28;20257;-69
2021/05/10 04:38:47;;;;;;;1.30;1.20;;;;;;;-143.37;100.00;65745.06;5092600;28;20208;-69
2021/05/10 04:41:13;;;;;;;1.20;1.10;;;;;;;-143.37;100.00;65745.06;5092641;28;20657;-69
2021/05/10 04:43:39;;;;;;;1.47;1.20;;;;;;;-143.37;100.00;65745.06;5082560;28;20201;-69
2021/05/10 04:46:10;;;;;;;2.53;1.20;;;;;;;-143.37;100.00;65745.06;5072043;28;20232;-69
2021/05/10 04:48:36;;;;;;;1.10;1.00;;;;;;;-143.37;100.00;65745.06;5072128;28;20216;-69
2021/05/10 04:51:02;;;;;;;1.17;1.00;;;;;;;18.01;100.00;97063.41;5109473;28;20200;-69
2021/05/10 04:53:28;;;;;;;2.13;1.53;;;;;;;19.08;100.00;97052.72;5112561;28;20223;-69
2021/05/10 04:55:54;;;;;;;2.33;1.03;;;;;;;20.61;100.00;97047.88;5112543;28;20258;-70
2021/05/10 04:58:20;;;;;;;1.33;0.97;;;;;;;20.28;100.00;97046.09;5101557;28;20237;-70
2021/05/10 05:00:46;;;;;;;1.20;1.07;;;;;;;21.45;100.00;97050.94;5091272;28;20201;-69
2021/05/10 05:03:13;;;;;;;1.63;1.20;;;;;;;22.72;100.00;97048.59;5091242;28;20287;-68
2021/05/10 05:05:39;;;;;;;1.30;1.10;;;;;;;24.67;100.00;97050.53;5091955;28;20855;-69
2021/05/10 05:08:05;;;;;;;1.17;1.08;;;;;;;24.67;100.00;97056.16;5091819;28;20727;-70
2021/05/10 05:10:31;;;;;;;1.60;1.15;;;;;;;25.46;100.00;97044.41;5092359;28;20615;-70
2021/05/10 05:12:57;;;;;;;1.25;1.08;;;;;;;26.12;100.00;97036.56;5092025;28;20256;-70
2021/05/10 05:15:23;;;;;;;1.02;0.70;;;;;;;23.94;100.00;97054.59;5090700;28;20215;-69
2021/05/10 05:17:49;;;;;;;1.15;0.98;;;;;;;26.52;100.00;97043.72;5091929;28;20224;-70
2021/05/10 05:20:18;;;;;;;2.75;1.45;;;;;;;29.04;100.00;97043.41;5090759;28;20204;-68
2021/05/10 05:22:44;;;;;;;1.70;1.23;;;;;;;28.37;87.70;97048.94;5092051;28;20212;-69
2021/05/10 05:25:10;;;;;;;5.22;1.27;;;;;;;26.93;100.00;97053.72;5091940;28;20295;-69
2021/05/10 05:27:37;;;;;;;1.88;1.27;;;;;;;22.72;100.00;97065.47;5090638;28;20307;-69
2021/05/10 05:30:05;;;;;;;1.17;1.02;;;;;;;23.71;100.00;97060.56;5091815;28;20205;-68
2021/05/10 05:32:31;;;;;;;1.88;1.35;;;;;;;25.58;100.00;97062.56;5091635;28;20263;-70
2021/05/10 05:34:59;;;;;;;1.70;1.42;;;;;;;27.08;100.00;97059.53;5089555;28;20196;-69
2021/05/10 05:37:28;;;;;;;1.30;1.00;;;;;;;28.02;100.00;97045.78;5064032;28;20231;-68
2021/05/10 05:39:54;;;;;;;1.38;1.20;;;;;;;28.26;93.09;97057.19;5076001;28;20209;-68
2021/05/10 05:42:21;;;;;;;1.33;1.05;;;;;;;31.69;72.83;97056.00;5070481;28;20555;-68
2021/05/10 05:44:53;;;;;;;1.38;1.20;;;;;;;31.71;63.15;97056.28;5069647;28;20205;-69
2021/05/10 05:47:25;;;;;;;1.80;1.25;;;;;;;31.00;67.12;97058.31;5069044;28;20299;-69
2021/05/10 05:49:52;;;;;;;1.20;1.10;;;;;;;32.42;60.98;97052.50;5083412;28;20664;-68
2021/05/10 05:52:20;;;;;;;0.85;0.77;;;;;;;29.80;66.67;97071.78;5088910;28;20319;-68
2021/05/10 05:54:47;;;;;;;0.68;0.68;;;;;;;30.84;64.69;97071.88;5091308;28;20197;-68
2021/05/10 05:57:13;;;;;;;1.23;0.98;;;;;;;31.61;62.89;97069.16;5091418;28;20316;-68
2021/05/10 05:59:39;;;;;;;1.42;1.33;;;;;;;31.47;60.50;97075.75;5090074;28;20311;-68
2021/05/10 06:02:05;;;;;;;1.33;1.00;;;;;;;32.69;59.19;97076.81;5073745;28;20295;-69
2021/05/10 06:04:31;;;;;;;1.10;0.90;;;;;;;34.15;52.77;97072.63;5091233;28;20235;-68
2021/05/10 06:06:57;;;;;;;1.02;0.90;;;;;;;34.90;49.71;97077.22;5086471;28;20228;-68
2021/05/10 06:09:24;;;;;;;1.88;0.70;;;;;;;34.43;49.71;97075.47;5089403;28;20255;-68
2021/05/10 06:11:53;;;;;;;2.08;1.10;;;;;;;34.61;48.15;97083.56;5088248;28;20235;-68
2021/05/10 06:14:19;;;;;;;1.60;0.90;;;;;;;33.74;48.89;97085.84;5087621;28;20311;-68
2021/05/10 06:16:45;;;;;;;1.30;0.88;;;;;;;35.07;47.86;97088.66;5089467;28;20305;-68
2021/05/10 06:19:12;;;;;;;1.58;1.15;;;;;;;34.92;46.85;97097.56;5090123;28;20204;-68
2021/05/10 06:21:39;;;;;;;2.70;1.58;;;;;;;32.89;49.98;97101.59;5092001;28;20208;-68
2021/05/10 06:24:07;;;;;;;1.05;0.95;;;;;;;33.07;50.67;97098.34;5090204;28;20228;-68
2021/05/10 06:26:33;;;;;;;1.02;0.93;;;;;;;35.12;48.15;97105.88;5092494;28;20315;-68
2021/05/10 06:28:59;;;;;;;2.22;0.90;;;;;;;34.92;45.70;97102.50;5092772;28;20204;-68
2021/05/10 06:31:25;;;;;;;1.70;0.90;;;;;;;33.30;48.36;97097.16;5093351;28;20245;-68
2021/05/10 06:33:51;;;;;;;1.08;0.98;;;;;;;34.40;47.90;97108.03;5092904;28;20209;-68
2021/05/10 06:36:17;;;;;;;0.90;0.88;;;;;;;35.31;45.02;97094.56;5092788;28;20205;-68
2021/05/10 06:38:43;;;;;;;1.33;1.15;;;;;;;34.02;45.84;97100.22;5093044;28;20551;-68
2021/05/10 06:41:11;;;;;;;1.13;0.90;;;;;;;34.62;48.68;97097.34;5078689;28;20711;-68
2021/05/10 06:43:37;;;;;;;1.33;1.13;;;;;;;34.82;44.21;97104.09;5082153;28;20335;-68
2021/05/10 06:46:03;;;;;;;0.93;0.82;;;;;;;35.64;45.48;97098.06;5089788;28;20204;-68
2021/05/10 06:48:32;;;;;;;0.98;0.88;;;;;;;34.74;46.93;97101.00;5092251;28;20205;-68
2021/05/10 06:50:59;;;;;;;1.55;0.90;;;;;;;32.89;47.64;97095.88;5092619;28;20208;-68
2021/05/10 06:53:26;;;;;;;0.80;0.80;;;;;;;32.56;49.09;97105.84;5093004;28;20258;-69
2021/05/10 06:55:53;;;;;;;3.33;1.38;;;;;;;32.43;49.29;97116.13;5092340;28;20244;-69
2021/05/10 06:58:20;;;;;;;0.80;0.80;;;;;;;30.42;53.28;97107.75;5093249;28;20315;-69
2021/05/10 07:00:47;;;;;;;0.60;0.60;;;;;;;29.77;57.49;97104.06;5093177;28;20224;-68
2021/05/10 07:03:13;;;;;;;1.00;0.90;;;;;;;30.96;56.15;97095.59;5092774;28;20247;-67
2021/05/10 07:05:39;;;;;;;1.13;1.00;;;;;;;32.01;56.07;97098.88;5091086;28;20279;-68
2021/05/10 07:08:13;;;;;;;1.35;1.00;;;;;;;31.07;55.97;97095.75;5089703;28;20392;-68
2021/05/10 07:10:39;;;;;;;0.90;0.77;;;;;;;30.85;58.66;97104.00;5089973;28;20299;-67
2021/05/10 07:13:06;;;;;;;0.60;0.60;;;;;;;32.12;56.96;97102.59;5091826;28;20296;-68
2021/05/10 07:15:35;;;;;;;0.82;0.68;;;;;;;29.68;61.79;97104.13;5091218;28;20228;-68
2021/05/10 07:18:09;;;;;;;2.70;0.75;;;;;;;28.83;63.05;97109.88;5088101;28;20235;-67
2021/05/10 07:20:37;;;;;;;1.23;0.80;;;;;;;30.21;62.64;97106.88;5091002;28;20231;-68
2021/05/10 07:23:05;;;;;;;0.90;0.70;;;;;;;30.18;60.33;97107.09;5091297;28;20821;-68
2021/05/10 07:25:40;;;;;;;0.98;0.77;;;;;;;31.41;60.94;97094.88;5089604;28;20222;-69
2021/05/10 07:28:07;;;;;;;0.75;0.75;;;;;;;28.55;63.84;97109.25;5091812;28;20315;-68
2021/05/10 07:30:34;;;;;;;1.50;1.10;;;;;;;28.64;66.46;97105.56;5091365;28;20250;-69
2021/05/10 07:33:00;;;;;;;0.80;0.73;;;;;;;29.57;64.53;97106.75;5091522;28;20251;-68
2021/05/10 07:35:26;;;;;;;1.10;1.00;;;;;;;28.41;68.89;97109.16;5088700;28;20208;-68
2021/05/10 07:37:52;;;;;;;1.17;0.75;;;;;;;28.83;65.16;97112.72;5090029;28;20716;-68
2021/05/10 07:40:21;;;;;;;1.02;0.77;;;;;;;27.99;74.27;97117.69;5091172;28;20205;-68
2021/05/10 07:42:47;;;;;;;1.13;0.80;;;;;;;29.44;66.97;97117.63;5091184;28;20216;-68
2021/05/10 07:45:13;;;;;;;1.05;0.90;;;;;;;29.21;66.21;97117.69;5090735;28;20211;-67
2021/05/10 07:47:39;;;;;;;1.10;0.90;;;;;;;29.75;64.13;97126.53;5091125;28;20224;-68
2021/05/10 07:50:06;;;;;;;1.10;1.00;;;;;;;29.92;64.53;97119.09;5101841;28;20203;-68
2021/05/10 07:52:33;;;;;;;0.55;0.55;;;;;;;29.85;66.63;97119.44;5111660;28;20286;-67
2021/05/10 07:55:00;;;;;;;0.93;0.82;;;;;;;30.63;61.13;97120.75;5100027;28;20273;-68
2021/05/10 07:57:26;;;;;;;1.02;0.95;;;;;;;29.57;66.87;97115.28;5090789;28;20212;-68
2021/05/10 07:59:52;;;;;;;0.93;0.75;;;;;;;29.33;67.44;97110.94;5089592;28;20299;-67
2021/05/10 08:02:22;;;;;;;1.08;1.00;;;;;;;30.59;66.78;97114.47;5090858;28;20230;-68
2021/05/10 08:04:53;;;;;;;1.38;1.17;;;;;;;32.13;64.79;97111.97;5090482;28;20220;-67
2021/05/10 08:07:19;;;;;;;2.03;1.00;;;;;;;30.91;61.92;97106.94;5090820;28;20247;-68
2021/05/10 08:09:46;;;;;;;0.60;0.60;;;;;;;29.73;65.63;97100.63;5090852;28;20260;-68
2021/05/10 08:12:12;;;;;;;1.42;0.85;;;;;;;28.97;69.40;97092.09;5090899;28;20228;-68
2021/05/10 08:14:39;;;;;;;1.90;0.98;;;;;;;27.82;75.83;97102.25;5090359;28;20232;-68
2021/05/10 08:17:05;;;;;;;1.70;1.15;;;;;;;28.55;75.63;97095.06;5090221;28;20236;-68
2021/05/10 08:19:32;;;;;;;1.02;0.70;;;;;;;29.83;66.81;97104.16;5089167;28;20209;-68
2021/05/10 08:22:03;;;;;;;1.63;0.80;;;;;;;30.30;60.95;97097.44;5070470;28;20694;-68
2021/05/10 08:24:30;;;;;;;1.45;1.02;;;;;;;28.49;65.61;97104.69;5069717;28;20221;-68
2021/05/10 08:26:57;;;;;;;1.13;0.82;;;;;;;31.09;60.76;97096.03;5070166;28;20314;-68
2021/05/10 08:29:23;;;;;;;0.73;0.73;;;;;;;29.32;64.16;97093.09;5071156;28;20205;-68
2021/05/10 08:31:49;;;;;;;0.52;0.52;;;;;;;30.48;63.95;97077.28;5068689;28;20201;-68
2021/05/10 08:34:17;;;;;;;1.75;1.20;;;;;;;29.61;65.28;97081.75;5074059;28;20738;-68
2021/05/10 08:36:44;;;;;;;1.42;0.98;;;;;;;30.39;61.37;97086.75;5090114;28;20256;-69
2021/05/10 08:39:11;;;;;;;0.85;0.60;;;;;;;30.47;60.34;97084.25;5089009;28;20299;-69
2021/05/10 08:41:39;;;;;;;1.00;0.95;;;;;;;29.28;61.69;97091.72;5088609;28;20257;-69
2021/05/10 08:44:09;;;;;;;1.17;0.63;;;;;;;30.18;57.60;97095.69;5090025;28;20216;-69
2021/05/10 08:46:39;;;;;;;0.50;0.50;;;;;;;30.75;53.01;97099.66;5083580;28;20265;-68
2021/05/10 08:49:06;;;;;;;0.60;0.60;;;;;;;30.20;55.10;97104.53;5091917;28;20299;-68
2021/05/10 08:51:34;;;;;;;0.45;0.45;;;;;;;29.47;57.72;97085.34;5075731;28;20204;-67
2021/05/10 08:54:00;;;;;;;0.55;0.50;;;;;;;30.89;53.87;97079.69;5085866;28;20653;-68
2021/05/10 08:56:27;;;;;;;0.60;0.52;;;;;;;29.69;57.49;97079.31;5077903;28;20316;-69
2021/05/10 08:58:53;;;;;;;0.98;0.77;;;;;;;29.36;59.77;97076.63;5087928;28;20208;-69
2021/05/10 09:01:20;;;;;;;1.15;0.73;;;;;;;30.00;59.47;97070.28;5088375;28;20235;-68
2021/05/10 09:03:49;;;;;;;0.77;0.77;;;;;;;30.25;60.08;97072.50;5088233;28;20711;-68
2021/05/10 09:06:29;;;;;;;0.85;0.60;;;;;;;31.07;56.67;97058.69;5088927;28;20212;-69
2021/05/10 09:09:07;;;;;;;3.10;1.05;;;;;;;30.21;60.04;97077.59;5089632;28;20192;-68
2021/05/10 09:11:33;;;;;;;0.98;0.70;;;;;;;28.92;65.23;97065.13;5089012;28;20212;-68
2021/05/10 09:13:59;;;;;;;2.42;1.35;;;;;;;30.46;62.65;97057.03;5089687;28;20249;-68
2021/05/10 09:16:26;;;;;;;1.17;0.63;;;;;;;30.62;61.18;97060.13;5088601;28;20252;-67
2021/05/10 09:18:58;;;;;;;0.90;0.85;;;;;;;29.77;62.53;97069.91;5089374;28;20254;-68
2021/05/10 09:21:29;;;;;;;1.13;0.80;;;;;;;30.93;59.21;97059.53;5089043;28;20204;-68
2021/05/10 09:24:24;;;;;;;1.23;0.77;;;;;;;29.86;64.44;97074.72;5089197;28;20234;-68
2021/05/10 09:27:26;;;;;;;0.77;0.75;;;;;;;29.43;65.01;97064.88;5088983;28;20224;-68
2021/05/10 09:30:22;;;;;;;1.23;0.68;;;;;;;29.94;63.36;97059.59;5088994;28;20207;-68
2021/05/10 09:32:54;;;;;;;1.08;0.60;;;;;;;29.65;64.77;97055.97;5086001;28;20308;-68
2021/05/10 09:35:29;;;;;;;1.38;0.77;;;;;;;29.11;62.98;97060.13;5086379;28;20204;-67
2021/05/10 09:38:00;;;;;;;1.13;0.85;;;;;;;30.28;60.46;97040.22;5087232;28;20314;-68
2021/05/10 09:40:29;;;;;;;2.30;0.73;;;;;;;30.34;61.36;97036.19;5087305;28;20226;-68
2021/05/10 09:43:06;;;;;;;1.13;0.70;;;;;;;30.29;60.62;97042.56;5084350;28;20322;-67
2021/05/10 09:45:35;;;;;;;1.85;1.05;;;;;;;29.48;62.77;97043.50;5087860;28;20750;-67
2021/05/10 09:48:15;;;;;;;0.50;0.50;;;;;;;30.43;62.81;97023.88;5088981;28;20311;-68
2021/05/10 09:50:44;;;;;;;0.50;0.50;;;;;;;29.88;63.16;97032.31;5089094;28;20228;-68
2021/05/10 09:53:15;;;;;;;1.17;0.80;;;;;;;29.65;66.11;97025.44;5088534;28;20734;-68
2021/05/10 09:55:55;;;;;;;0.70;0.55;;;;;;;29.16;67.62;97027.41;5088160;28;20258;-68
2021/05/10 09:58:35;;;;;;;0.73;0.70;;;;;;;28.96;67.31;97030.84;5090670;28;20681;-67
2021/05/10 10:01:02;;;;;;;0.60;0.55;;;;;;;30.08;67.04;97028.75;5092721;28;20214;-67
2021/05/10 10:03:38;;;;;;;0.60;0.50;;;;;;;30.05;69.06;97029.75;5091955;28;20224;-68
2021/05/10 10:06:11;;;;;;;1.65;1.02;;;;;;;30.31;63.58;97036.41;5090581;28;20215;-67
2021/05/10 10:08:39;;;;;;;0.75;0.50;;;;;;;31.26;62.23;97030.66;5090864;28;20219;-69
2021/05/10 10:11:08;;;;;;;0.73;0.60;;;;;;;30.54;63.09;97024.03;5084254;28;20738;-68
2021/05/10 10:13:34;;;;;;;1.08;0.85;;;;;;;30.70;64.97;97010.00;5072383;28;20631;-68
2021/05/10 10:16:01;;;;;;;1.30;0.93;;;;;;;30.34;64.41;97016.25;5070504;28;20208;-68
2021/05/10 10:18:28;;;;;;;0.60;0.60;;;;;;;28.41;69.98;97015.47;5071765;28;20320;-69
2021/05/10 10:20:59;;;;;;;0.98;0.80;;;;;;;28.84;75.10;97026.22;5072798;28;20213;-68
2021/05/10 10:23:28;;;;;;;1.25;0.55;;;;;;;29.33;71.42;97029.28;5070347;28;20700;-68
2021/05/10 10:25:58;;;;;;;0.80;0.77;;;;;;;29.76;70.83;97030.59;5070693;28;20301;-68
2021/05/10 10:28:26;;;;;;;0.47;0.47;;;;;;;28.75;73.67;97043.34;5072115;28;20685;-68
2021/05/10 10:30:57;;;;;;;0.52;0.38;;;;;;;29.49;72.68;97039.41;5074803;28;20328;-68
2021/05/10 10:33:34;;;;;;;0.88;0.75;;;;;;;28.35;75.26;97042.94;5089120;28;20248;-67
2021/05/10 10:36:02;;;;;;;0.63;0.55;;;;;;;28.82;75.02;97040.91;5086191;28;20289;-69
2021/05/10 10:38:34;;;;;;;1.02;0.82;;;;;;;29.54;81.14;97036.63;5089854;28;20790;-69
2021/05/10 10:41:23;;;;;;;0.88;0.63;;;;;;;28.98;75.49;97040.47;5090912;28;20612;-68
2021/05/10 10:43:50;;;;;;;0.70;0.60;;;;;;;28.04;81.95;97028.28;5080302;28;20307;-69
2021/05/10 10:46:28;;;;;;;1.05;0.70;;;;;;;28.43;82.61;97027.91;5070925;28;20300;-68
2021/05/10 10:48:57;;;;;;;0.98;0.70;;;;;;;28.46;83.61;97040.34;5075583;28;20241;-69
2021/05/10 10:51:25;;;;;;;0.75;0.65;;;;;;;28.50;80.44;97021.09;5112308;28;20208;-69
2021/05/10 10:53:55;;;;;;;0.93;0.70;;;;;;;27.82;92.02;97034.97;5110399;28;20256;-68
2021/05/10 10:56:53;;;;;;;0.73;0.60;;;;;;;28.39;87.56;97015.97;5088162;28;20677;-71
2021/05/10 10:59:40;;;;;;;0.98;0.73;;;;;;;27.88;87.14;97013.19;5089747;28;20281;-71
2021/05/10 11:02:15;;;;;;;0.73;0.70;;;;;;;27.85;89.16;97010.53;5091282;28;20204;-68
2021/05/10 11:04:41;;;;;;;0.50;0.50;;;;;;;28.12;87.36;97012.50;5090124;28;20259;-69
2021/05/10 11:07:07;;;;;;;1.05;0.88;;;;;;;27.85;90.60;97002.03;5090735;28;20745;-68
2021/05/10 11:09:45;;;;;;;0.77;0.60;;;;;;;28.08;90.68;97017.56;5081146;28;20296;-68
2021/05/10 11:12:45;;;;;;;0.50;0.50;;;;;;;27.80;90.63;97014.03;5072010;28;20213;-68
2021/05/10 11:15:33;;;;;;;0.50;0.50;;;;;;;28.39;94.27;97006.66;5071070;28;20236;-68
2021/05/10 11:17:59;;;;;;;1.30;0.93;;;;;;;27.70;93.85;97021.78;5070304;28;20359;-69
2021/05/10 11:20:42;;;;;;;0.82;0.60;;;;;;;27.66;94.45;97009.81;5071253;28;20209;-69
2021/05/10 11:23:21;;;;;;;1.90;0.80;;;;;;;27.94;91.82;97014.16;5070562;28;20241;-69
2021/05/10 11:25:47;;;;;;;0.63;0.63;;;;;;;27.63;89.04;97018.50;5071585;28;20623;-68
2021/05/10 11:28:25;;;;;;;1.52;1.10;;;;;;;28.08;86.89;97014.72;5070885;28;20709;-68
2021/05/10 11:31:05;;;;;;;0.88;0.77;;;;;;;28.13;90.64;97029.03;5072122;28;20304;-69
2021/05/10 11:33:53;;;;;;;1.23;0.65;;;;;;;28.04;90.97;97019.78;5071972;28;20216;-68
2021/05/10 11:36:24;;;;;;;0.57;0.52;;;;;;;28.25;89.13;97032.91;5071251;28;20201;-68
2021/05/10 11:38:52;;;;;;;1.15;1.05;;;;;;;28.02;90.07;97025.13;5072169;28;20815;-69
2021/05/10 11:41:26;;;;;;;0.40;0.40;;;;;;;27.95;95.12;97027.09;5071678;28;20205;-69
2021/05/10 11:43:57;;;;;;;1.08;0.73;;;;;;;27.99;92.76;97027.66;5082145;28;20227;-68
2021/05/10 11:46:36;;;;;;;0.63;0.57;;;;;;;28.54;98.39;97033.09;5089858;28;20283;-69
2021/05/10 11:49:06;;;;;;;1.25;0.80;;;;;;;28.06;86.72;97025.75;5094073;28;20240;-69
2021/05/10 11:51:40;;;;;;;2.10;0.95;;;;;;;28.77;96.95;97029.44;5111894;28;20212;-69
2021/05/10 11:54:09;;;;;;;1.27;1.02;;;;;;;28.31;89.58;97042.31;5112133;28;20513;-70
2021/05/10 11:56:46;;;;;;;1.23;0.88;;;;;;;28.29;99.59;97033.50;5110279;28;20232;-70
2021/05/10 12:02:14;;;;;;;0.57;0.55;;;;;;;28.27;93.54;97039.66;5091694;28;20259;-69
2021/05/10 12:04:46;;;;;;;1.00;0.80;;;;;;;28.17;96.87;97037.38;5090844;28;20235;-70
2021/05/10 12:07:13;;;;;;;0.75;0.63;;;;;;;28.34;88.55;97030.78;5091672;28;20228;-69
2021/05/10 12:09:45;;;;;;;1.17;0.93;;;;;;;28.44;89.66;97023.00;5091665;28;20303;-70
2021/05/10 12:12:14;;;;;;;0.88;0.70;;;;;;;28.69;83.66;97014.81;5090992;28;20239;-70
2021/05/10 12:14:42;;;;;;;0.60;0.60;;;;;;;28.37;87.42;97009.19;5091028;28;20622;-70